Ames, Iowa
Current Conditions -  °F | °C
As of 3:53 AM on Sunday 25 Jan 2015 (Local Time) from KAMW Reporting Station
Overcast Overcast  
Wind Chill: -1°   Ceiling: 3800
Heat Index:   Visibility: 10mi
Dew Point:   Wind: 9mph
Humidity: 86%   Direction: 20°NNE
Pressure: 29.58"   Gusts: NA
Location:  42.03°N, 93.62°W
Report Text: KAMW 250953Z AUTO 02008KT 10SM SCT030 BKN038 OVC060 03/01 A2958 RMK AO2 UPE0855 SLP019 P0000 T00280006
Loading
Personal Weather Stations






























Interactive Weather Map New forecast layout! Learn more

10-Day Weather Forecast

Advertisements
Track Severe Weather on mobile